Time;durP1;ratioP1;P1;durP2;ratioP2;P2;SDS_P1;SDS_P2;PMS_P1;PMS_P2;Temp;Humidity;BMP_temperature;BMP_pressure;BME280_temperature;BME280_humidity;BME280_pressure;Samples;Min_cycle;Max_cycle;Signal;HPM_P1;HPM_P2
2022/01/15 00:01:35;;;;;;;32.28;3.70;;;1.10;79.20;;;;;;4151459;28;20029;-63
2022/01/15 00:03:36;;;;;;;39.22;5.13;;;1.10;79.20;;;;;;4150126;28;20400;-63
2022/01/15 00:05:37;;;;;;;38.50;4.40;;;1.10;79.30;;;;;;4157203;28;20117;-64
2022/01/15 00:07:38;;;;;;;42.25;4.10;;;1.10;79.20;;;;;;4136523;28;20039;-63
2022/01/15 00:09:41;;;;;;;41.63;5.20;;;1.10;79.20;;;;;;4149806;28;20026;-63
2022/01/15 00:11:44;;;;;;;43.65;5.18;;;1.10;79.40;;;;;;4150772;28;20033;-63
2022/01/15 00:13:52;;;;;;;25.35;3.45;;;1.10;79.40;;;;;;4154619;28;20024;-62
2022/01/15 00:16:04;;;;;;;46.97;4.60;;;1.10;79.50;;;;;;4153686;28;20037;-62
2022/01/15 00:18:11;;;;;;;42.10;4.93;;;1.10;79.50;;;;;;4156746;28;20033;-62
2022/01/15 00:20:16;;;;;;;47.20;4.65;;;1.10;79.70;;;;;;4157702;28;20048;-62
2022/01/15 00:22:18;;;;;;;34.20;3.83;;;1.10;79.80;;;;;;4152307;28;20045;-63
2022/01/15 00:24:18;;;;;;;48.45;4.15;;;1.10;79.90;;;;;;4155935;28;20022;-62
2022/01/15 00:26:19;;;;;;;41.97;4.97;;;1.10;79.80;;;;;;4153904;28;20028;-62
2022/01/15 00:28:20;;;;;;;37.17;4.38;;;1.10;79.70;;;;;;4156107;28;20477;-62
2022/01/15 00:30:21;;;;;;;39.58;4.85;;;1.10;79.70;;;;;;4137574;28;20026;-64
2022/01/15 00:32:21;;;;;;;38.63;3.45;;;1.10;79.70;;;;;;4133304;28;20454;-63
2022/01/15 00:34:22;;;;;;;30.60;4.95;;;1.10;79.80;;;;;;4154687;28;20030;-63
2022/01/15 00:36:23;;;;;;;53.25;4.38;;;1.10;79.70;;;;;;4152126;28;20037;-63
2022/01/15 00:38:23;;;;;;;29.30;3.60;;;1.10;79.60;;;;;;4157094;28;20026;-63
2022/01/15 00:40:24;;;;;;;36.88;4.35;;;1.10;79.50;;;;;;4156434;28;20033;-63
2022/01/15 00:42:25;;;;;;;42.10;4.55;;;1.10;79.50;;;;;;4139716;28;20055;-64
2022/01/15 00:44:26;;;;;;;28.73;4.13;;;1.10;79.40;;;;;;4154551;28;20026;-63
2022/01/15 00:46:27;;;;;;;40.35;4.22;;;1.10;79.40;;;;;;4154505;28;20032;-63
2022/01/15 00:48:27;;;;;;;33.40;4.35;;;1.10;79.30;;;;;;4141550;28;20026;-63
2022/01/15 00:50:28;;;;;;;29.05;3.78;;;1.10;79.30;;;;;;4152121;28;20463;-63
2022/01/15 00:52:28;;;;;;;55.90;5.38;;;1.10;79.30;;;;;;4153077;28;20025;-63
2022/01/15 00:54:29;;;;;;;43.03;4.25;;;1.10;79.40;;;;;;4154654;28;20037;-64
2022/01/15 00:56:30;;;;;;;47.42;4.50;;;1.00;79.40;;;;;;4156652;28;20038;-63
2022/01/15 00:58:30;;;;;;;46.72;4.45;;;1.10;79.60;;;;;;4155535;28;20444;-62
2022/01/15 01:00:31;;;;;;;40.13;4.68;;;1.10;79.70;;;;;;4138423;28;20109;-63
2022/01/15 01:02:32;;;;;;;30.70;4.15;;;1.00;79.60;;;;;;4136963;28;20041;-63
2022/01/15 01:04:32;;;;;;;43.75;4.03;;;1.10;79.60;;;;;;4152850;28;20157;-64
2022/01/15 01:06:33;;;;;;;39.47;4.55;;;1.10;79.50;;;;;;4153787;28;20049;-64
2022/01/15 01:08:33;;;;;;;34.90;4.85;;;1.10;79.40;;;;;;4148464;28;20489;-64
2022/01/15 01:10:53;;;;;;;33.75;4.22;;;1.10;80.00;;;;;;4154820;28;20033;-63
2022/01/15 01:13:14;;;;;;;31.35;4.00;;;1.10;79.20;;;;;;4153565;28;20030;-64
2022/01/15 01:20:08;;;;;;;43.95;4.13;;;1.00;78.80;;;;;;4154297;28;20033;-64
2022/01/15 01:24:21;;;;;;;46.63;4.33;;;1.00;78.70;;;;;;4158688;28;20029;-64
2022/01/15 01:26:40;;;;;;;42.15;4.40;;;1.00;78.70;;;;;;4133728;28;20307;-63
2022/01/15 01:28:45;;;;;;;31.85;3.60;;;0.90;78.60;;;;;;4157548;28;20087;-63
2022/01/15 01:30:53;;;;;;;23.58;3.38;;;0.90;78.50;;;;;;4156469;28;20030;-62
2022/01/15 01:33:39;;;;;;;30.73;3.80;;;0.90;78.60;;;;;;4153200;28;20025;-62
2022/01/15 01:35:40;;;;;;;29.85;4.78;;;0.90;78.70;;;;;;4146352;28;20380;-61
2022/01/15 01:37:46;;;;;;;40.85;3.92;;;0.80;78.70;;;;;;4155827;28;20034;-62
2022/01/15 01:39:52;;;;;;;51.45;4.57;;;0.80;78.90;;;;;;4160832;28;20051;-63
2022/01/15 01:44:16;;;;;;;35.47;3.88;;;0.80;79.20;;;;;;4155112;28;20097;-62
2022/01/15 01:48:28;;;;;;;34.22;3.88;;;0.70;79.50;;;;;;4146185;28;20059;-63
2022/01/15 01:50:29;;;;;;;34.30;4.55;;;0.70;79.70;;;;;;4161329;28;20478;-63
2022/01/15 01:52:29;;;;;;;38.35;5.25;;;0.80;79.90;;;;;;4161765;28;20049;-63
2022/01/15 01:54:30;;;;;;;37.88;4.20;;;0.70;79.80;;;;;;4140172;28;20034;-63
2022/01/15 01:56:31;;;;;;;27.27;3.63;;;0.70;79.70;;;;;;4159125;28;20025;-62
2022/01/15 01:58:31;;;;;;;42.70;4.03;;;0.70;79.60;;;;;;4140495;28;20034;-63
2022/01/15 02:00:32;;;;;;;26.92;3.60;;;0.70;79.60;;;;;;4157040;28;20068;-62
2022/01/15 02:02:33;;;;;;;33.20;3.97;;;0.70;79.50;;;;;;4156192;28;20138;-64
2022/01/15 02:04:33;;;;;;;20.35;3.40;;;0.70;79.50;;;;;;4140771;28;20041;-62
2022/01/15 02:06:35;;;;;;;30.13;3.67;;;0.70;79.40;;;;;;4157932;28;20561;-63
2022/01/15 02:08:37;;;;;;;30.60;3.80;;;0.70;79.30;;;;;;4138017;28;20026;-63
2022/01/15 02:10:37;;;;;;;33.95;4.32;;;0.70;79.30;;;;;;4160788;28;20075;-63
2022/01/15 02:12:38;;;;;;;38.00;4.15;;;0.60;79.20;;;;;;4157691;28;20046;-63
2022/01/15 02:14:38;;;;;;;33.85;4.53;;;0.60;79.30;;;;;;4157571;28;20026;-63
2022/01/15 02:16:39;;;;;;;33.53;4.35;;;0.60;79.40;;;;;;4158358;28;20056;-62
2022/01/15 02:18:40;;;;;;;25.52;3.72;;;0.60;79.60;;;;;;4157976;28;20033;-63
2022/01/15 02:25:06;;;;;;;38.10;4.53;;;0.60;79.90;;;;;;4161449;28;20033;-63
2022/01/15 02:27:07;;;;;;;27.55;3.63;;;0.50;80.00;;;;;;4153268;28;20075;-63
2022/01/15 02:29:08;;;;;;;28.77;3.42;;;0.50;80.00;;;;;;4157111;28;20107;-62
2022/01/15 02:31:16;;;;;;;25.35;3.10;;;0.50;80.00;;;;;;4154598;28;20091;-63
2022/01/15 02:33:16;;;;;;;31.35;3.85;;;0.50;79.80;;;;;;4154236;28;20028;-62
2022/01/15 02:35:17;;;;;;;27.83;3.38;;;0.50;79.80;;;;;;4157529;28;20026;-63
2022/01/15 02:37:17;;;;;;;27.58;3.85;;;0.50;79.70;;;;;;4138338;28;20069;-64
2022/01/15 02:39:18;;;;;;;32.38;3.60;;;0.50;79.60;;;;;;4157661;28;20064;-63
2022/01/15 02:41:32;;;;;;;24.17;3.00;;;0.50;79.60;;;;;;4154855;28;20996;-62
2022/01/15 02:43:33;;;;;;;43.58;3.60;;;0.50;79.50;;;;;;4141341;28;20029;-62
2022/01/15 02:45:35;;;;;;;29.90;3.63;;;0.50;79.50;;;;;;4142255;28;20386;-63
2022/01/15 02:49:55;;;;;;;29.75;3.00;;;0.50;79.50;;;;;;4157726;28;20040;-63
2022/01/15 02:51:56;;;;;;;36.50;3.53;;;0.50;79.60;;;;;;4152471;28;20021;-63
2022/01/15 02:53:56;;;;;;;23.25;3.72;;;0.50;79.50;;;;;;4160835;28;20037;-62
2022/01/15 02:55:57;;;;;;;25.60;2.75;;;0.50;79.40;;;;;;4156020;28;20030;-62
2022/01/15 02:57:58;;;;;;;35.42;3.22;;;0.40;79.30;;;;;;4149847;28;20033;-62
2022/01/15 02:59:58;;;;;;;30.75;3.50;;;0.40;79.30;;;;;;4153348;28;20037;-64
2022/01/15 03:01:59;;;;;;;22.60;3.38;;;0.40;79.30;;;;;;4137448;28;20022;-63
2022/01/15 03:04:00;;;;;;;22.45;3.20;;;0.40;79.40;;;;;;4156366;28;20021;-62
2022/01/15 03:06:01;;;;;;;38.13;3.45;;;0.40;79.50;;;;;;4138474;28;20026;-63
2022/01/15 03:08:02;;;;;;;24.05;3.10;;;0.40;79.60;;;;;;4157663;28;20030;-63
2022/01/15 03:10:04;;;;;;;33.33;3.53;;;0.50;79.90;;;;;;4151496;28;20044;-63
2022/01/15 03:12:05;;;;;;;34.78;3.97;;;0.50;80.10;;;;;;4156013;28;20032;-63
2022/01/15 03:14:06;;;;;;;25.80;3.30;;;0.50;80.20;;;;;;4161337;28;20389;-63
2022/01/15 03:16:07;;;;;;;23.02;3.17;;;0.50;80.40;;;;;;4142163;28;20034;-62
2022/01/15 03:18:07;;;;;;;30.60;3.53;;;0.60;80.50;;;;;;4138242;28;20468;-63
2022/01/15 03:20:08;;;;;;;33.03;3.28;;;0.60;80.60;;;;;;4154822;28;20029;-64
2022/01/15 03:22:09;;;;;;;33.85;2.97;;;0.70;80.70;;;;;;4158665;28;20376;-63
2022/01/15 03:24:10;;;;;;;34.25;3.33;;;0.70;80.80;;;;;;4156067;28;20103;-62
2022/01/15 03:26:13;;;;;;;29.38;4.22;;;0.80;81.30;;;;;;4150081;28;20034;-64
2022/01/15 03:28:13;;;;;;;;;;;0.70;80.90;;;;;;4154808;28;20509;-63
2022/01/15 03:30:14;;;;;;;35.00;3.80;;;0.80;81.20;;;;;;4155358;28;19919;-63
2022/01/15 03:32:15;;;;;;;31.48;4.03;;;0.80;81.20;;;;;;4156429;28;20091;-63
2022/01/15 03:34:15;;;;;;;37.50;3.78;;;0.80;81.20;;;;;;4155955;28;20164;-63
2022/01/15 03:36:16;;;;;;;24.02;3.72;;;0.80;81.30;;;;;;4153404;28;20033;-62
2022/01/15 03:38:17;;;;;;;37.55;3.75;;;0.90;81.30;;;;;;4157969;28;20033;-62
2022/01/15 03:40:18;;;;;;;28.52;3.17;;;0.90;81.20;;;;;;4155876;28;20041;-63
2022/01/15 03:42:18;;;;;;;26.05;3.30;;;0.90;81.10;;;;;;4159170;28;20476;-63
2022/01/15 03:44:19;;;;;;;35.15;3.83;;;0.90;81.00;;;;;;4137694;28;20046;-63
2022/01/15 03:46:21;;;;;;;44.70;4.38;;;0.90;81.00;;;;;;4159775;28;20021;-64
2022/01/15 03:48:21;;;;;;;29.00;3.33;;;1.00;81.00;;;;;;4161004;28;20385;-63
2022/01/15 03:50:22;;;;;;;24.80;2.90;;;1.00;80.90;;;;;;4156203;28;20044;-63
2022/01/15 03:52:22;;;;;;;25.90;3.55;;;1.00;80.90;;;;;;4157586;28;20033;-62
2022/01/15 03:54:23;;;;;;;27.52;3.05;;;1.00;80.90;;;;;;4156260;28;20083;-63
2022/01/15 03:56:24;;;;;;;29.05;3.80;;;1.00;80.80;;;;;;4150733;28;20052;-64
2022/01/15 03:58:24;;;;;;;38.42;3.72;;;1.00;80.70;;;;;;4157564;28;20048;-63
2022/01/15 04:00:25;;;;;;;36.38;4.00;;;1.00;80.60;;;;;;4157914;28;20033;-63
2022/01/15 04:02:26;;;;;;;23.63;3.28;;;1.10;80.60;;;;;;4137316;28;20073;-63
2022/01/15 04:04:27;;;;;;;32.72;3.83;;;1.10;80.70;;;;;;4141317;28;20038;-63
2022/01/15 04:06:27;;;;;;;31.17;3.13;;;1.10;80.70;;;;;;4150373;28;20444;-63
2022/01/15 04:08:28;;;;;;;27.05;3.63;;;1.10;80.70;;;;;;4153826;28;20029;-63
2022/01/15 04:10:28;;;;;;;32.15;2.97;;;1.10;80.70;;;;;;4156120;28;20029;-62
2022/01/15 04:12:29;;;;;;;41.50;4.05;;;1.10;80.70;;;;;;4155209;28;20091;-63
2022/01/15 04:14:30;;;;;;;28.65;3.10;;;1.20;80.70;;;;;;4159812;28;20029;-62
2022/01/15 04:16:31;;;;;;;35.95;3.55;;;1.20;80.70;;;;;;4155074;28;20532;-62
2022/01/15 04:18:36;;;;;;;27.80;3.17;;;1.20;80.70;;;;;;4151840;28;20036;-64
2022/01/15 04:20:37;;;;;;;21.70;3.90;;;1.30;80.80;;;;;;4156464;28;20481;-63
2022/01/15 04:22:38;;;;;;;29.73;3.40;;;1.30;80.80;;;;;;4156386;28;20076;-64
2022/01/15 04:24:38;;;;;;;30.00;2.95;;;1.30;80.70;;;;;;4136536;28;20481;-62
2022/01/15 04:26:39;;;;;;;39.25;3.80;;;1.30;80.60;;;;;;4154246;28;20041;-63
2022/01/15 04:28:40;;;;;;;25.23;2.88;;;1.30;80.50;;;;;;4155982;28;20516;-64
2022/01/15 04:30:46;;;;;;;27.02;2.83;;;1.40;80.50;;;;;;4157046;28;20033;-64
2022/01/15 04:32:47;;;;;;;29.48;3.60;;;1.40;80.30;;;;;;4189652;22;20076;-83
2022/01/15 04:34:48;;;;;;;25.88;3.40;;;1.40;80.00;;;;;;4111197;28;20043;-83
2022/01/15 04:36:49;;;;;;;30.45;2.75;;;1.40;79.80;;;;;;4097241;28;20571;-83
2022/01/15 04:38:50;;;;;;;26.40;3.50;;;1.40;79.50;;;;;;4129186;28;20084;-82
2022/01/15 04:40:50;;;;;;;25.15;3.28;;;1.40;79.30;;;;;;4129150;28;20066;-82
2022/01/15 04:42:51;;;;;;;24.02;3.08;;;1.40;79.10;;;;;;4129618;28;20111;-82
2022/01/15 04:44:51;;;;;;;24.67;3.28;;;1.40;79.10;;;;;;4104168;28;20031;-82
2022/01/15 04:46:52;;;;;;;19.60;2.45;;;1.40;79.00;;;;;;4128888;28;20045;-82
2022/01/15 04:48:53;;;;;;;21.92;2.67;;;1.40;78.90;;;;;;4128870;28;20026;-82
2022/01/15 04:50:54;;;;;;;19.20;2.58;;;1.40;78.80;;;;;;4126615;28;20027;-82
2022/01/15 04:52:54;;;;;;;26.55;2.60;;;1.40;78.70;;;;;;4096721;28;20035;-82
2022/01/15 04:54:55;;;;;;;24.85;2.67;;;1.40;78.50;;;;;;4124829;28;20062;-82
2022/01/15 04:56:56;;;;;;;20.88;2.78;;;1.40;78.40;;;;;;4125158;28;20531;-81
2022/01/15 04:58:56;;;;;;;27.52;2.97;;;1.40;78.20;;;;;;4128269;28;20061;-81
2022/01/15 05:00:57;;;;;;;23.73;2.83;;;1.40;78.00;;;;;;4127828;28;20033;-83
2022/01/15 05:02:57;;;;;;;18.70;2.45;;;1.30;77.80;;;;;;4130139;28;20039;-83
2022/01/15 05:04:58;;;;;;;16.88;2.13;;;1.30;77.70;;;;;;4110333;28;20480;-83
2022/01/15 05:06:59;;;;;;;12.65;2.00;;;1.30;77.50;;;;;;4126135;28;20026;-83
2022/01/15 05:09:06;;;;;;;19.42;2.33;;;1.30;78.00;;;;;;4127959;28;20042;-82
2022/01/15 05:11:14;;;;;;;15.50;2.03;;;1.30;77.00;;;;;;4127827;28;20542;-83
2022/01/15 05:13:15;;;;;;;26.30;2.58;;;1.20;76.80;;;;;;4099390;28;20428;-82
2022/01/15 05:15:17;;;;;;;31.83;2.63;;;1.20;76.70;;;;;;4077798;29;20023;-82
2022/01/15 05:17:17;;;;;;;12.38;2.63;;;1.10;76.40;;;;;;4102970;28;20485;-82
2022/01/15 05:19:18;;;;;;;17.42;2.00;;;1.10;76.30;;;;;;4113132;28;20037;-83
2022/01/15 05:21:18;;;;;;;23.30;2.58;;;1.00;76.10;;;;;;4112947;28;21886;-83
2022/01/15 05:23:19;;;;;;;22.70;2.20;;;1.00;76.10;;;;;;4115187;28;20057;-82
2022/01/15 05:25:20;;;;;;;23.65;2.58;;;0.90;76.00;;;;;;4112742;28;20030;-83
2022/01/15 05:27:20;;;;;;;13.23;1.50;;;0.90;76.00;;;;;;4111428;28;20035;-82
2022/01/15 05:29:21;;;;;;;21.30;2.38;;;0.90;75.90;;;;;;4097427;28;20042;-83
2022/01/15 05:31:21;;;;;;;18.88;2.38;;;0.80;75.90;;;;;;4115824;28;20105;-83
2022/01/15 05:33:22;;;;;;;20.08;2.20;;;0.70;75.80;;;;;;4113428;28;20084;-82
2022/01/15 05:35:26;;;;;;;18.83;2.38;;;0.70;75.80;;;;;;4082181;29;20030;-82
2022/01/15 05:37:27;;;;;;;17.15;1.90;;;0.70;75.70;;;;;;4096005;28;20491;-82
2022/01/15 05:39:28;;;;;;;15.50;1.70;;;0.60;76.40;;;;;;4077282;29;20051;-82
2022/01/15 05:41:28;;;;;;;15.55;2.30;;;0.60;75.50;;;;;;4132653;28;20034;-83
2022/01/15 05:43:29;;;;;;;22.80;2.10;;;0.50;75.50;;;;;;4093708;28;20094;-82
2022/01/15 05:45:29;;;;;;;20.80;2.65;;;0.50;75.50;;;;;;4125509;28;20030;-82
2022/01/15 05:47:30;;;;;;;34.88;3.38;;;0.40;75.50;;;;;;4129279;28;20042;-82
2022/01/15 05:49:30;;;;;;;20.33;2.35;;;0.40;75.50;;;;;;4127083;28;20044;-84
2022/01/15 05:51:31;;;;;;;22.58;2.40;;;0.30;75.50;;;;;;4101511;28;20101;-84
2022/01/15 05:53:32;;;;;;;20.17;2.42;;;0.20;75.30;;;;;;4130587;28;20026;-83
2022/01/15 05:55:32;;;;;;;24.75;2.75;;;0.20;75.30;;;;;;4100082;28;20416;-83
2022/01/15 05:57:33;;;;;;;18.48;2.63;;;0.10;75.40;;;;;;4098634;28;20070;-83
2022/01/15 05:59:34;;;;;;;19.17;2.25;;;0.10;75.50;;;;;;4128712;28;20023;-83
2022/01/15 06:01:35;;;;;;;20.00;2.22;;;0.00;75.60;;;;;;4129330;28;20030;-82
2022/01/15 06:03:36;;;;;;;13.48;2.20;;;0.00;75.80;;;;;;4130579;28;20038;-83
2022/01/15 06:05:36;;;;;;;20.90;2.65;;;-0.10;75.80;;;;;;4128005;28;20034;-82
2022/01/15 06:07:37;;;;;;;20.48;1.95;;;-0.10;76.00;;;;;;4115012;28;20034;-82
2022/01/15 06:09:38;;;;;;;16.55;2.10;;;-0.20;76.10;;;;;;4131284;28;20400;-82
2022/01/15 06:11:40;;;;;;;16.70;2.25;;;-0.20;76.30;;;;;;4127296;28;20042;-82
2022/01/15 06:13:40;;;;;;;14.65;2.20;;;-0.20;76.50;;;;;;4126612;28;20066;-82
2022/01/15 06:15:41;;;;;;;21.60;2.05;;;-0.20;76.60;;;;;;4126532;28;20026;-82
2022/01/15 06:17:42;;;;;;;25.30;2.00;;;-0.20;76.80;;;;;;4132940;28;20133;-82
2022/01/15 06:19:42;;;;;;;17.33;2.17;;;-0.30;76.80;;;;;;4092137;28;20158;-82
2022/01/15 06:21:43;;;;;;;16.77;2.25;;;-0.20;77.00;;;;;;4128601;28;20037;-82
2022/01/15 06:23:44;;;;;;;20.05;2.67;;;-0.30;77.00;;;;;;4132808;28;20052;-82
2022/01/15 06:25:44;;;;;;;17.60;2.50;;;-0.20;77.20;;;;;;4116653;28;20030;-82
2022/01/15 06:27:45;;;;;;;19.33;3.05;;;-0.30;77.20;;;;;;4113723;28;20039;-82
2022/01/15 06:29:46;;;;;;;21.92;2.55;;;-0.30;77.30;;;;;;4115996;28;20038;-82
2022/01/15 06:31:46;;;;;;;27.98;3.58;;;-0.30;77.50;;;;;;4127165;28;20431;-82
2022/01/15 06:33:47;;;;;;;37.05;3.30;;;-0.30;77.90;;;;;;4128187;28;20057;-82
2022/01/15 06:35:47;;;;;;;28.98;3.88;;;-0.30;78.30;;;;;;4130481;28;20026;-81
2022/01/15 06:37:49;;;;;;;22.10;2.55;;;-0.30;78.70;;;;;;4112022;28;20026;-82
2022/01/15 06:39:49;;;;;;;23.92;2.70;;;-0.30;79.00;;;;;;4113367;28;20587;-80
2022/01/15 06:41:50;;;;;;;22.95;3.10;;;-0.30;79.20;;;;;;4098865;28;20038;-80
2022/01/15 06:43:51;;;;;;;24.90;3.45;;;-0.30;79.60;;;;;;4111439;28;20469;-80
2022/01/15 06:45:51;;;;;;;43.40;3.20;;;-0.20;79.90;;;;;;4132416;28;20034;-80
2022/01/15 06:47:52;;;;;;;25.85;2.95;;;-0.20;80.30;;;;;;4094697;28;20039;-80
2022/01/15 06:49:53;;;;;;;24.10;2.42;;;-0.20;80.60;;;;;;4129199;28;20167;-80
2022/01/15 06:51:53;;;;;;;23.27;3.17;;;-0.10;80.90;;;;;;4131192;28;20041;-80
2022/01/15 06:53:54;;;;;;;16.83;3.03;;;-0.10;81.10;;;;;;4130046;28;20034;-80
2022/01/15 06:55:55;;;;;;;26.23;2.92;;;0.00;81.30;;;;;;4128661;28;20034;-80
2022/01/15 06:57:56;;;;;;;25.27;3.70;;;0.10;81.50;;;;;;4128663;28;20049;-80
2022/01/15 06:59:56;;;;;;;29.60;2.97;;;0.10;81.50;;;;;;4129676;28;20033;-80
2022/01/15 07:01:57;;;;;;;39.17;3.22;;;0.10;81.60;;;;;;4129468;28;20042;-80
2022/01/15 07:03:58;;;;;;;28.98;3.63;;;0.20;81.60;;;;;;4128976;28;20046;-80
2022/01/15 07:05:58;;;;;;;31.63;3.90;;;0.20;81.60;;;;;;4125940;28;20027;-80
2022/01/15 07:07:59;;;;;;;30.08;3.53;;;0.30;81.70;;;;;;4130339;28;20037;-80
2022/01/15 07:09:59;;;;;;;28.42;3.15;;;0.30;81.80;;;;;;4131957;28;20388;-80
2022/01/15 07:12:00;;;;;;;30.30;4.28;;;0.40;81.90;;;;;;4117581;28;20034;-80
2022/01/15 07:14:01;;;;;;;24.65;3.47;;;0.40;82.00;;;;;;4097280;28;20122;-80
2022/01/15 07:16:01;;;;;;;24.73;2.90;;;0.50;82.00;;;;;;4129971;28;20026;-80
2022/01/15 07:18:02;;;;;;;25.17;3.05;;;0.50;82.00;;;;;;4133091;28;20034;-80
2022/01/15 07:20:03;;;;;;;24.05;2.67;;;0.60;81.90;;;;;;4112117;28;22284;-80
2022/01/15 07:22:04;;;;;;;42.85;3.88;;;0.60;81.70;;;;;;4095392;28;20083;-80
2022/01/15 07:24:06;;;;;;;30.55;3.17;;;0.60;81.50;;;;;;4111131;28;20045;-80
2022/01/15 07:26:06;;;;;;;33.55;3.60;;;0.70;81.30;;;;;;4128281;28;20034;-80
2022/01/15 07:28:07;;;;;;;37.60;3.97;;;0.60;81.00;;;;;;4127769;28;20101;-80
2022/01/15 07:30:08;;;;;;;28.00;3.83;;;0.70;80.80;;;;;;4112729;28;20034;-80
2022/01/15 07:32:09;;;;;;;52.72;16.98;;;0.60;80.70;;;;;;4112713;28;20765;-80
2022/01/15 07:34:10;;;;;;;35.90;10.18;;;0.60;80.50;;;;;;4113146;28;20163;-80
2022/01/15 07:36:12;;;;;;;26.67;6.82;;;0.60;80.40;;;;;;4129002;28;20105;-80
2022/01/15 07:38:13;;;;;;;36.10;5.10;;;0.60;80.40;;;;;;4129939;28;20483;-80
2022/01/15 07:40:14;;;;;;;31.88;3.80;;;0.60;80.30;;;;;;4112562;28;20043;-80
2022/01/15 07:42:14;;;;;;;24.55;3.97;;;0.60;80.20;;;;;;4127822;28;20208;-80
2022/01/15 07:44:15;;;;;;;23.73;3.55;;;0.60;80.10;;;;;;4129790;28;20055;-80
2022/01/15 07:46:16;;;;;;;21.63;3.40;;;0.60;80.00;;;;;;4111216;28;20512;-80
2022/01/15 07:48:17;;;;;;;22.65;2.92;;;0.60;79.90;;;;;;4099108;28;20060;-80
2022/01/15 07:50:24;;;;;;;16.73;3.08;;;0.60;79.90;;;;;;4110159;28;20034;-80
2022/01/15 07:52:25;;;;;;;24.02;3.65;;;0.50;79.70;;;;;;4131090;28;20034;-80
2022/01/15 07:54:26;;;;;;;24.92;2.90;;;0.60;79.80;;;;;;4127335;28;20403;-80
2022/01/15 07:56:26;;;;;;;23.02;3.40;;;0.50;80.50;;;;;;4127115;28;20015;-80
2022/01/15 07:58:27;;;;;;;25.33;3.05;;;0.50;79.70;;;;;;4128090;28;20517;-81
2022/01/15 08:00:28;;;;;;;25.67;3.17;;;0.50;79.70;;;;;;4125810;28;20034;-80
2022/01/15 08:02:28;;;;;;;22.05;3.25;;;0.50;79.60;;;;;;4127636;28;20519;-80
2022/01/15 08:04:29;;;;;;;13.57;2.30;;;0.50;79.60;;;;;;4127942;28;20423;-80
2022/01/15 08:06:29;;;;;;;29.67;2.58;;;0.50;79.50;;;;;;4128159;28;20057;-80
2022/01/15 08:08:30;;;;;;;20.45;2.63;;;0.50;79.40;;;;;;4113291;28;20049;-80
2022/01/15 08:10:30;;;;;;;24.30;4.10;;;0.50;79.30;;;;;;4110842;28;20034;-80
2022/01/15 08:12:31;;;;;;;20.05;2.33;;;0.50;79.20;;;;;;4097294;28;20032;-80
2022/01/15 08:14:32;;;;;;;17.63;2.10;;;0.40;78.90;;;;;;4122010;28;20037;-80
2022/01/15 08:16:32;;;;;;;16.05;2.55;;;0.40;78.80;;;;;;4112103;28;20157;-80
2022/01/15 08:18:34;;;;;;;27.48;2.53;;;0.50;78.70;;;;;;4124965;28;20038;-80
2022/01/15 08:20:34;;;;;;;16.58;2.05;;;0.40;78.50;;;;;;4093499;28;20584;-80
2022/01/15 08:22:35;;;;;;;15.95;2.50;;;0.40;78.40;;;;;;4115583;28;20037;-80
2022/01/15 08:24:36;;;;;;;10.68;1.90;;;0.40;78.40;;;;;;4094340;28;20417;-80
2022/01/15 08:26:36;;;;;;;24.50;3.13;;;0.40;78.30;;;;;;4115849;28;20026;-80
2022/01/15 08:28:37;;;;;;;14.68;2.30;;;0.40;78.20;;;;;;4110953;28;20675;-80
2022/01/15 08:30:38;;;;;;;12.65;2.42;;;0.40;78.20;;;;;;4108080;28;20042;-80
2022/01/15 08:32:39;;;;;;;21.23;3.28;;;0.40;78.20;;;;;;4123425;28;20026;-80
2022/01/15 08:34:39;;;;;;;22.25;3.65;;;0.40;78.20;;;;;;4091597;28;20043;-80
2022/01/15 08:36:40;;;;;;;21.80;3.47;;;0.40;78.30;;;;;;4077720;29;20023;-80
2022/01/15 08:38:41;;;;;;;27.67;4.85;;;0.40;78.40;;;;;;4110326;28;20049;-80
2022/01/15 08:40:42;;;;;;;49.95;10.80;;;0.40;78.60;;;;;;4110598;28;20388;-80
2022/01/15 08:42:42;;;;;;;54.22;13.85;;;0.40;78.80;;;;;;4110651;28;20069;-80
2022/01/15 08:44:44;;;;;;;52.67;10.88;;;0.40;78.90;;;;;;4126856;28;20022;-80
2022/01/15 08:46:45;;;;;;;42.08;7.47;;;0.40;79.10;;;;;;4110060;28;20085;-82
2022/01/15 08:48:46;;;;;;;23.35;4.95;;;0.40;79.20;;;;;;4128058;28;20092;-81
2022/01/15 08:50:47;;;;;;;23.50;4.40;;;0.50;79.40;;;;;;4112654;28;20098;-81
2022/01/15 08:52:48;;;;;;;26.23;3.75;;;0.50;79.60;;;;;;4095283;28;20034;-81
2022/01/15 08:54:49;;;;;;;24.00;3.22;;;0.50;79.90;;;;;;4099806;28;20027;-82
2022/01/15 08:56:49;;;;;;;17.23;2.67;;;0.50;80.20;;;;;;4128971;28;20565;-81
2022/01/15 08:58:50;;;;;;;20.70;3.33;;;0.60;80.40;;;;;;4128273;28;20042;-82
2022/01/15 09:00:54;;;;;;;26.27;2.65;;;0.60;80.60;;;;;;4128979;28;20045;-82
2022/01/15 09:02:55;;;;;;;21.45;3.22;;;0.70;80.80;;;;;;4111512;28;20448;-82
2022/01/15 09:04:56;;;;;;;13.98;2.55;;;0.70;81.00;;;;;;4132972;28;20540;-81
2022/01/15 09:06:56;;;;;;;22.13;3.40;;;0.80;81.10;;;;;;4125278;28;20046;-81
2022/01/15 09:08:57;;;;;;;30.13;3.80;;;0.80;81.20;;;;;;4123832;28;20050;-81
2022/01/15 09:10:58;;;;;;;20.33;2.72;;;0.90;81.40;;;;;;4091217;28;20058;-82
2022/01/15 09:12:58;;;;;;;21.20;3.15;;;0.90;81.40;;;;;;4109851;28;20023;-81
2022/01/15 09:14:59;;;;;;;23.73;3.95;;;1.00;81.40;;;;;;4107864;28;20105;-81
2022/01/15 09:16:59;;;;;;;30.27;4.07;;;1.00;81.30;;;;;;4110935;28;20042;-82
2022/01/15 09:19:00;;;;;;;25.23;3.08;;;1.00;81.20;;;;;;4123804;28;20038;-81
2022/01/15 09:21:02;;;;;;;31.10;4.40;;;1.10;81.10;;;;;;4108227;28;20058;-82
2022/01/15 09:23:02;;;;;;;22.38;3.50;;;1.10;81.00;;;;;;4094642;28;20039;-81
2022/01/15 09:25:04;;;;;;;26.23;7.82;;;1.20;81.00;;;;;;4127340;28;20029;-82
2022/01/15 09:31:45;;;;;;;24.33;3.20;;;1.40;81.00;;;;;;4115419;28;21590;-81
2022/01/15 09:33:45;;;;;;;19.90;2.85;;;1.50;81.00;;;;;;4111581;28;20030;-81
2022/01/15 09:35:46;;;;;;;29.67;4.03;;;1.50;81.00;;;;;;4110262;28;20027;-81
2022/01/15 09:37:47;;;;;;;19.58;3.47;;;1.60;81.00;;;;;;4107014;28;20045;-82
2022/01/15 09:39:47;;;;;;;28.17;3.20;;;1.60;81.00;;;;;;4094589;28;20085;-82
2022/01/15 09:41:49;;;;;;;20.45;2.83;;;1.70;81.00;;;;;;4111793;28;20030;-82
2022/01/15 09:43:50;;;;;;;35.22;4.10;;;1.80;81.00;;;;;;4110141;28;20035;-82
2022/01/15 09:45:52;;;;;;;20.65;3.47;;;1.90;81.10;;;;;;4095259;28;20027;-82
2022/01/15 09:47:58;;;;;;;26.20;4.07;;;1.90;80.90;;;;;;4096228;28;20114;-82
2022/01/15 09:49:59;;;;;;;24.48;3.28;;;2.00;80.80;;;;;;4110439;28;20023;-82
2022/01/15 09:52:01;;;;;;;32.65;3.95;;;2.10;80.70;;;;;;4096069;28;20038;-82
2022/01/15 09:54:02;;;;;;;17.52;3.00;;;2.10;80.60;;;;;;4125425;28;20081;-82
2022/01/15 09:56:06;;;;;;;23.20;3.38;;;2.20;80.50;;;;;;4125507;28;20026;-82
2022/01/15 09:58:07;;;;;;;18.40;3.45;;;2.20;80.30;;;;;;4116452;28;20031;-82
2022/01/15 10:00:10;;;;;;;33.33;4.45;;;2.30;80.20;;;;;;4129841;28;20046;-82
2022/01/15 10:02:10;;;;;;;34.97;3.80;;;2.40;80.00;;;;;;4115138;28;20102;-81
2022/01/15 10:04:11;;;;;;;25.48;3.50;;;2.40;79.80;;;;;;4129788;28;20089;-82
2022/01/15 10:06:11;;;;;;;26.58;2.90;;;2.50;79.80;;;;;;4127165;28;20022;-82
2022/01/15 10:08:13;;;;;;;23.98;2.92;;;2.60;79.80;;;;;;4138924;28;20097;-81
2022/01/15 10:10:15;;;;;;;26.35;2.95;;;2.60;79.60;;;;;;4094653;28;20114;-82
2022/01/15 10:12:28;;;;;;;15.48;3.05;;;2.70;79.50;;;;;;4128823;28;20029;-82
2022/01/15 10:14:31;;;;;;;22.17;3.05;;;2.70;79.30;;;;;;4121666;28;20053;-82
2022/01/15 10:16:32;;;;;;;;;;;2.80;79.20;;;;;;4127480;28;20097;-82
2022/01/15 10:18:33;;;;;;;19.08;2.90;;;2.90;78.70;;;;;;4136016;28;20381;-82
2022/01/15 10:20:34;;;;;;;25.08;3.33;;;3.00;78.90;;;;;;4100696;28;20034;-82
2022/01/15 10:22:37;;;;;;;24.20;3.08;;;3.00;78.70;;;;;;4107559;28;20127;-82
2022/01/15 10:24:39;;;;;;;15.00;3.20;;;3.10;78.50;;;;;;4115421;28;20038;-82
2022/01/15 10:26:40;;;;;;;17.30;3.10;;;3.10;78.40;;;;;;4113555;28;20035;-82
2022/01/15 10:29:07;;;;;;;27.60;3.22;;;3.20;78.30;;;;;;4098689;28;20031;-82
2022/01/15 10:31:22;;;;;;;28.73;4.32;;;3.30;78.10;;;;;;4131482;28;20118;-82
2022/01/15 10:33:22;;;;;;;26.65;3.75;;;3.30;78.00;;;;;;4113379;28;20030;-82
2022/01/15 10:35:24;;;;;;;17.38;3.28;;;3.40;77.90;;;;;;4113095;28;20086;-82
2022/01/15 10:37:37;;;;;;;25.85;3.20;;;3.50;78.00;;;;;;4081855;29;20047;-82
2022/01/15 10:39:38;;;;;;;31.55;2.88;;;3.60;78.40;;;;;;4102616;28;20030;-81
2022/01/15 10:41:38;;;;;;;20.92;2.72;;;3.60;77.60;;;;;;4119505;28;20035;-81
2022/01/15 10:43:39;;;;;;;24.00;3.25;;;3.70;77.50;;;;;;4112919;28;20117;-82
2022/01/15 10:45:56;;;;;;;23.25;4.38;;;3.80;77.10;;;;;;4132919;28;20030;-81
2022/01/15 10:47:58;;;;;;;28.25;3.33;;;3.90;76.80;;;;;;4129330;28;20030;-81
2022/01/15 10:50:02;;;;;;;21.07;3.40;;;4.00;76.90;;;;;;4100923;28;20094;-82
2022/01/15 10:52:08;;;;;;;;;;;4.00;76.50;;;;;;4105972;28;20035;-82
2022/01/15 10:54:09;;;;;;;30.80;3.20;;;4.10;76.30;;;;;;4129081;28;19940;-82
2022/01/15 10:56:11;;;;;;;22.15;2.80;;;4.20;76.20;;;;;;4113246;28;20031;-82